KFFL/FFL METAR and TAF weather

Enter ICAO airport designator
Station Type Date Time Source
KFFL METAR 2020/04/05 07:15 UTC NOAA

KFFL 050715Z AUTO 03006KT OVC100 05/02 A3012 RMK A01


Station Type Date Time Source
KFFL Decoded METAR 2020/04/05 07:15 UTC NOAA

Fair Field, IA, United States (KFFL) 41-03N 091-59W
Apr 05, 2020 - 03:15 AM EDT / 2020.04.05 0715 UTC
Wind: from the NNE (030 degrees) at 7 MPH (6 KT):0
Sky conditions: overcast
Temperature: 41 F (5 C)
Dew Point: 35 F (2 C)
Relative Humidity: 80%
Pressure (altimeter): 30.12 in. Hg (1019 hPa)
ob: KFFL 050715Z AUTO 03006KT OVC100 05/02 A3012 RMK A01
cycle: 7

Station Type Date Time Source
KFFL TAF UTC NOAA

Error!

Example: see airport list